Time;durP1;ratioP1;P1;durP2;ratioP2;P2;SDS_P1;SDS_P2;PMS_P1;PMS_P2;Temp;Humidity;BMP_temperature;BMP_pressure;BME280_temperature;BME280_humidity;BME280_pressure;Samples;Min_cycle;Max_cycle;Signal;HPM_P1;HPM_P2
2021/03/04 00:00:56;;;;;;;159.52;75.67;;;;;;;4.23;64.84;100710.81;2121359;83;30276;-62
2021/03/04 00:03:59;;;;;;;158.30;76.72;;;;;;;4.17;64.77;100711.80;2122080;83;27670;-62
2021/03/04 00:07:01;;;;;;;166.80;78.05;;;;;;;4.15;64.95;100699.01;2120691;83;28835;-62
2021/03/04 00:10:13;;;;;;;152.72;71.62;;;;;;;4.13;65.17;100695.50;2119353;83;33423;-63
2021/03/04 00:13:15;;;;;;;134.27;65.97;;;;;;;4.13;65.22;100691.53;2114080;84;34022;-62
2021/03/04 00:16:17;;;;;;;142.05;66.25;;;;;;;4.14;65.33;100684.47;2117127;83;29158;-65
2021/03/04 00:19:20;;;;;;;140.77;63.98;;;;;;;4.17;65.52;100679.09;2088302;84;27764;-63
2021/03/04 00:22:22;;;;;;;120.25;57.60;;;;;;;4.21;65.66;100676.81;2100111;84;29718;-64
2021/03/04 00:25:27;;;;;;;105.07;52.73;;;;;;;4.21;65.53;100667.09;2071197;84;31158;-62
2021/03/04 00:28:29;;;;;;;106.72;50.20;;;;;;;4.25;65.68;100666.58;2070225;85;33129;-63
2021/03/04 00:31:31;;;;;;;106.35;50.83;;;;;;;4.30;65.74;100668.71;2070002;85;29187;-64
2021/03/04 00:34:34;;;;;;;100.30;50.23;;;;;;;4.34;65.69;100660.24;2076063;84;27768;-63
2021/03/04 00:37:37;;;;;;;94.97;47.40;;;;;;;4.38;65.72;100659.29;2070729;86;28853;-62
2021/03/04 00:40:40;;;;;;;94.52;47.00;;;;;;;4.39;65.66;100649.97;2070546;85;31181;-63
2021/03/04 00:43:42;;;;;;;95.67;49.60;;;;;;;4.40;65.67;100645.09;2068964;85;34059;-63
2021/03/04 00:46:44;;;;;;;94.35;46.48;;;;;;;4.40;65.61;100642.87;2087261;84;29577;-62
2021/03/04 00:49:46;;;;;;;94.65;47.17;;;;;;;4.40;65.54;100634.48;2097829;84;27662;-63
2021/03/04 00:52:50;;;;;;;88.50;44.75;;;;;;;4.40;65.59;100637.56;2100721;84;29460;-63
2021/03/04 00:55:52;;;;;;;93.92;45.17;;;;;;;4.39;65.49;100628.75;2097391;84;32172;-63
2021/03/04 00:58:55;;;;;;;86.30;42.78;;;;;;;4.39;65.44;100629.18;2069194;86;33198;-62
2021/03/04 01:01:57;;;;;;;79.50;41.92;;;;;;;4.36;65.38;100626.61;2070164;85;29327;-62
2021/03/04 01:04:59;;;;;;;80.97;41.88;;;;;;;4.31;65.27;100622.69;2091351;84;27679;-63
2021/03/04 01:08:02;;;;;;;81.90;40.38;;;;;;;4.27;65.19;100613.06;2075744;84;31146;-63
2021/03/04 01:11:04;;;;;;;90.20;43.65;;;;;;;4.22;65.18;100613.13;2070800;84;32167;-65
2021/03/04 01:14:07;;;;;;;81.63;40.80;;;;;;;4.16;65.18;100609.72;2088890;84;33630;-63
2021/03/04 01:17:12;;;;;;;79.30;40.75;;;;;;;4.09;65.14;100605.88;2084420;84;30463;-63
2021/03/04 01:20:17;;;;;;;76.80;39.85;;;;;;;4.02;65.09;100594.94;2085523;84;27694;-62
2021/03/04 01:23:20;;;;;;;72.32;38.78;;;;;;;3.94;65.12;100585.80;2071142;84;29774;-62
2021/03/04 01:26:22;;;;;;;73.50;39.40;;;;;;;3.88;65.18;100587.25;2074639;85;31167;-62
2021/03/04 01:29:24;;;;;;;75.30;38.75;;;;;;;3.80;65.19;100586.05;2078869;84;34086;-63
2021/03/04 01:32:27;;;;;;;78.92;39.13;;;;;;;3.74;65.25;100585.26;2070662;86;29221;-62
2021/03/04 01:35:29;;;;;;;76.50;38.05;;;;;;;3.68;65.31;100580.08;2094946;84;27626;-62
2021/03/04 01:38:31;;;;;;;77.42;40.05;;;;;;;3.63;65.41;100577.52;2069275;85;29604;-63
2021/03/04 01:41:34;;;;;;;79.25;37.10;;;;;;;3.56;65.32;100579.36;2068943;85;31180;-62
2021/03/04 01:44:37;;;;;;;81.32;39.65;;;;;;;3.51;65.37;100577.25;2070466;84;35399;-63
2021/03/04 01:47:42;;;;;;;82.20;38.90;;;;;;;3.45;65.51;100577.34;2069469;84;29112;-63
2021/03/04 01:50:45;;;;;;;80.17;37.58;;;;;;;3.40;65.51;100569.48;2098362;84;27687;-63
2021/03/04 01:53:47;;;;;;;84.13;39.18;;;;;;;3.37;65.55;100568.66;2078722;84;31161;-62
2021/03/04 01:56:50;;;;;;;79.58;38.95;;;;;;;3.33;65.68;100563.84;2080520;84;31360;-63
2021/03/04 01:59:52;;;;;;;74.07;36.95;;;;;;;3.31;65.78;100565.66;2100562;84;34033;-62
2021/03/04 02:02:54;;;;;;;76.62;35.73;;;;;;;3.29;65.92;100568.78;2100541;84;29242;-65
2021/03/04 02:05:56;;;;;;;76.15;36.53;;;;;;;3.27;66.05;100566.59;2074199;84;27696;-63
2021/03/04 02:09:00;;;;;;;73.55;34.83;;;;;;;3.26;66.14;100556.44;2097898;84;28893;-63
2021/03/04 02:12:10;;;;;;;74.05;35.00;;;;;;;3.24;66.17;100554.27;2119013;83;32199;-63
2021/03/04 02:15:20;;;;;;;68.35;33.55;;;;;;;3.19;66.10;100546.39;2093141;84;34022;-62
2021/03/04 02:18:25;;;;;;;63.10;32.75;;;;;;;3.22;66.20;100554.77;2097973;83;29165;-63
2021/03/04 02:21:56;;;;;;;63.38;32.08;;;;;;;3.22;66.18;100552.11;2100461;84;27702;-63
2021/03/04 02:25:22;;;;;;;58.20;29.05;;;;;;;3.21;66.19;100546.82;2011552;87;29594;-62
2021/03/04 02:28:26;;;;;;;61.05;28.92;;;;;;;3.19;66.39;100539.78;2042423;87;31158;-62
2021/03/04 02:31:30;;;;;;;57.40;28.32;;;;;;;3.21;66.44;100541.53;1999792;88;33203;-63
2021/03/04 02:34:33;;;;;;;49.93;25.72;;;;;;;3.23;66.41;100544.56;2017493;87;30522;-61
2021/03/04 02:37:46;;;;;;;50.30;26.25;;;;;;;3.25;66.48;100536.16;1983271;89;27724;-63
2021/03/04 02:40:51;;;;;;;53.60;24.90;;;;;;;3.28;66.49;100541.41;1984713;89;28933;-63
2021/03/04 02:43:54;;;;;;;50.28;24.43;;;;;;;3.31;66.63;100534.75;2008497;88;32064;-64
2021/03/04 02:46:56;;;;;;;51.05;23.15;;;;;;;3.34;66.71;100526.77;2011180;87;33526;-64
2021/03/04 02:49:58;;;;;;;43.85;21.60;;;;;;;3.39;66.68;100526.67;2034220;87;29167;-62
2021/03/04 02:53:01;;;;;;;47.62;23.35;;;;;;;3.44;66.74;100524.84;2004585;87;27727;-63
2021/03/04 02:56:05;;;;;;;43.70;21.42;;;;;;;3.48;66.65;100517.24;2037808;87;29263;-63
2021/03/04 02:59:08;;;;;;;46.68;20.88;;;;;;;3.53;66.65;100514.55;2130101;83;31157;-63
2021/03/04 03:02:11;;;;;;;44.63;21.40;;;;;;;3.58;66.75;100507.36;2130105;83;33132;-63
2021/03/04 03:05:17;;;;;;;43.00;24.18;;;;;;;3.61;66.68;100507.31;2132315;83;29170;-63
2021/03/04 03:08:19;;;;;;;45.83;21.48;;;;;;;3.65;66.82;100490.91;2134921;83;27712;-63
2021/03/04 03:11:22;;;;;;;46.05;23.42;;;;;;;3.70;66.81;100485.55;2091271;84;28834;-62
2021/03/04 03:14:24;;;;;;;45.55;21.23;;;;;;;3.74;66.69;100486.78;2124912;83;31158;-63
2021/03/04 03:17:26;;;;;;;41.75;21.42;;;;;;;3.77;66.69;100492.47;2120623;83;33552;-63
2021/03/04 03:20:28;;;;;;;41.10;22.13;;;;;;;3.80;66.72;100489.77;2123998;83;29289;-63
2021/03/04 03:23:30;;;;;;;42.20;21.00;;;;;;;3.79;66.69;100488.91;2104137;84;27681;-63
2021/03/04 03:26:32;;;;;;;45.35;22.07;;;;;;;3.81;66.76;100483.56;2120968;83;28790;-64
2021/03/04 03:29:34;;;;;;;49.60;22.05;;;;;;;3.82;66.70;100487.97;2120537;83;31217;-62
2021/03/04 03:32:39;;;;;;;44.63;22.50;;;;;;;3.84;66.65;100489.25;2126775;82;34153;-62
2021/03/04 03:35:42;;;;;;;42.15;22.35;;;;;;;3.84;66.80;100493.22;2112271;83;29171;-64
2021/03/04 03:38:46;;;;;;;44.90;22.52;;;;;;;3.82;66.71;100480.02;2072981;84;27692;-62
2021/03/04 03:41:48;;;;;;;42.60;21.70;;;;;;;3.82;66.74;100482.67;2122226;83;28910;-62
2021/03/04 03:44:50;;;;;;;47.50;21.55;;;;;;;3.81;66.70;100486.22;2122126;83;31637;-63
2021/03/04 03:47:52;;;;;;;46.68;23.25;;;;;;;3.79;66.78;100486.69;2104122;83;33008;-62
2021/03/04 03:50:56;;;;;;;39.98;22.95;;;;;;;3.78;66.84;100479.64;2125040;83;29259;-62
2021/03/04 03:54:00;;;;;;;49.58;23.22;;;;;;;3.78;66.95;100476.99;2105377;83;27688;-63
2021/03/04 03:57:04;;;;;;;44.77;22.20;;;;;;;3.76;66.96;100475.71;2102346;84;28808;-64
2021/03/04 04:00:09;;;;;;;45.80;24.05;;;;;;;3.74;66.95;100468.23;2102746;84;31344;-65
2021/03/04 04:03:11;;;;;;;41.80;21.48;;;;;;;3.73;67.05;100470.46;2103900;83;33973;-64
2021/03/04 04:06:13;;;;;;;46.15;23.73;;;;;;;3.73;66.98;100474.44;2122644;83;29590;-63
2021/03/04 04:09:16;;;;;;;57.73;24.70;;;;;;;3.71;66.92;100482.86;2103650;84;27717;-64
2021/03/04 04:12:18;;;;;;;47.23;24.25;;;;;;;3.69;67.01;100481.16;2101507;83;28920;-62
2021/03/04 04:15:22;;;;;;;52.30;25.57;;;;;;;3.68;67.05;100482.91;2100724;84;31104;-62
2021/03/04 04:18:24;;;;;;;53.05;25.00;;;;;;;3.65;67.17;100475.02;2088250;84;33139;-63
2021/03/04 04:21:26;;;;;;;57.70;27.27;;;;;;;3.64;67.24;100478.13;2097720;84;29150;-63
2021/03/04 04:24:28;;;;;;;59.77;27.93;;;;;;;3.64;67.24;100478.59;2071161;84;27595;-62
2021/03/04 04:27:30;;;;;;;53.40;25.85;;;;;;;3.61;67.36;100478.17;2040208;85;28857;-62
2021/03/04 04:30:32;;;;;;;51.98;25.50;;;;;;;3.60;67.28;100482.19;2068983;86;31136;-63
2021/03/04 04:33:34;;;;;;;56.08;28.27;;;;;;;3.57;67.34;100473.83;2095448;84;33145;-64
2021/03/04 04:36:36;;;;;;;60.05;28.95;;;;;;;3.55;67.58;100475.66;2085315;84;29899;-63
2021/03/04 04:39:39;;;;;;;52.93;27.87;;;;;;;3.53;67.78;100472.16;2069990;84;27671;-63
2021/03/04 04:42:41;;;;;;;58.42;29.25;;;;;;;3.52;67.81;100468.20;2069282;86;28857;-63
2021/03/04 04:45:44;;;;;;;60.50;28.07;;;;;;;3.52;67.97;100472.16;2069247;84;31166;-64
2021/03/04 04:48:46;;;;;;;55.63;29.57;;;;;;;3.50;68.04;100470.41;2085364;84;32300;-63
2021/03/04 04:51:48;;;;;;;53.15;28.95;;;;;;;3.49;68.08;100464.70;2097011;84;29165;-64
2021/03/04 04:54:50;;;;;;;56.28;29.02;;;;;;;3.49;68.33;100465.16;2118468;83;27674;-64
2021/03/04 04:57:53;;;;;;;64.12;31.85;;;;;;;3.49;68.46;100459.86;2070495;85;28847;-64
2021/03/04 05:00:55;;;;;;;57.60;30.12;;;;;;;3.50;68.57;100454.99;2076473;84;30367;-62
2021/03/04 05:03:57;;;;;;;61.18;31.57;;;;;;;3.49;68.55;100452.78;2100672;84;33121;-63
2021/03/04 05:06:59;;;;;;;61.55;33.02;;;;;;;3.48;68.81;100451.03;2090231;84;29165;-63
2021/03/04 05:10:06;;;;;;;60.75;31.77;;;;;;;3.48;68.88;100443.55;2084802;85;27840;-64
2021/03/04 05:13:08;;;;;;;63.48;32.45;;;;;;;3.48;68.96;100439.11;2070662;85;28947;-63
2021/03/04 05:16:12;;;;;;;59.90;32.67;;;;;;;3.48;69.10;100438.25;2103431;84;31178;-63
2021/03/04 05:19:14;;;;;;;60.58;34.13;;;;;;;3.46;69.14;100425.48;2094317;84;34812;-63
2021/03/04 05:22:16;;;;;;;68.05;35.78;;;;;;;3.47;69.32;100424.58;2100658;84;30109;-63
2021/03/04 05:25:19;;;;;;;69.85;35.95;;;;;;;3.46;69.78;100419.75;2100697;84;27699;-62
2021/03/04 05:28:21;;;;;;;68.67;36.03;;;;;;;3.47;69.93;100419.28;2085998;84;30223;-63
2021/03/04 05:31:24;;;;;;;69.42;38.00;;;;;;;3.49;70.05;100424.11;2060986;84;31155;-63
2021/03/04 05:34:26;;;;;;;70.20;36.28;;;;;;;3.51;70.27;100410.39;2037269;87;32936;-63
2021/03/04 05:37:28;;;;;;;70.20;36.77;;;;;;;3.54;70.31;100408.12;2057023;84;30096;-64
2021/03/04 05:40:31;;;;;;;70.12;37.03;;;;;;;3.58;70.16;100414.66;2068255;84;28229;-64
2021/03/04 05:43:36;;;;;;;70.22;36.88;;;;;;;3.61;70.25;100416.39;2070147;86;29253;-64
2021/03/04 05:46:40;;;;;;;74.37;38.75;;;;;;;3.64;70.50;100415.02;2072226;84;31198;-66
2021/03/04 05:50:00;;;;;;;77.00;37.98;;;;;;;3.67;70.56;100414.07;2084432;84;33119;-64
2021/03/04 05:53:16;;;;;;;76.62;40.55;;;;;;;3.72;70.68;100413.54;2100136;84;29340;-64
2021/03/04 05:56:18;;;;;;;;;;;;;;;3.76;70.69;100408.58;2093692;84;27735;-65
2021/03/04 05:59:22;;;;;;;87.60;42.43;;;;;;;3.83;70.72;100406.23;2055023;84;31101;-65
2021/03/04 06:02:26;;;;;;;84.50;43.43;;;;;;;3.89;70.83;100403.91;2093359;84;31154;-65
2021/03/04 06:05:29;;;;;;;82.82;41.33;;;;;;;3.95;70.73;100390.08;2100437;84;33120;-65
2021/03/04 06:08:31;;;;;;;76.05;42.33;;;;;;;4.03;70.86;100392.56;2079105;84;29696;-64
2021/03/04 06:11:36;;;;;;;79.10;42.50;;;;;;;4.11;70.93;100400.36;2119031;84;27636;-65
2021/03/04 06:14:38;;;;;;;84.85;42.53;;;;;;;4.20;70.87;100399.29;2097929;84;28897;-65
2021/03/04 06:17:54;;;;;;;77.85;43.08;;;;;;;4.27;70.79;100396.94;2079872;84;31153;-65
2021/03/04 06:20:57;;;;;;;80.10;43.13;;;;;;;4.36;70.80;100394.53;2036955;86;34420;-64
2021/03/04 06:24:00;;;;;;;74.60;41.48;;;;;;;4.46;70.80;100392.55;2087826;84;29177;-64
2021/03/04 06:27:02;;;;;;;76.20;42.33;;;;;;;4.56;70.73;100393.59;2096925;84;27661;-65
2021/03/04 06:30:12;;;;;;;79.87;43.38;;;;;;;4.66;70.74;100389.42;2090497;84;28844;-64
2021/03/04 06:33:15;;;;;;;77.65;43.00;;;;;;;4.78;70.88;100394.89;2073788;83;32507;-65
2021/03/04 06:36:19;;;;;;;83.97;45.50;;;;;;;4.89;70.79;100395.94;2070341;86;33193;-65
2021/03/04 06:39:21;;;;;;;83.30;45.73;;;;;;;5.01;70.72;100394.33;2070162;85;29181;-65
2021/03/04 06:42:23;;;;;;;87.67;47.93;;;;;;;5.13;70.69;100383.38;2070618;86;27692;-64
2021/03/04 06:45:37;;;;;;;97.95;56.33;;;;;;;5.27;70.66;100380.81;2070727;86;29270;-64
2021/03/04 06:48:53;;;;;;;118.05;63.85;;;;;;;5.42;70.59;100382.20;2070567;85;33472;-65
2021/03/04 06:51:55;;;;;;;113.88;60.80;;;;;;;5.58;70.54;100387.95;2089391;84;33067;-65
2021/03/04 06:55:14;;;;;;;119.57;63.13;;;;;;;5.76;70.42;100383.93;2054364;84;29235;-64
2021/03/04 06:58:25;;;;;;;97.17;52.33;;;;;;;5.90;70.30;100381.74;2070498;85;27636;-64
2021/03/04 07:01:29;;;;;;;90.85;49.35;;;;;;;6.04;70.17;100380.02;2088090;84;29599;-64
2021/03/04 07:04:31;;;;;;;90.15;50.88;;;;;;;6.19;70.08;100372.05;2111277;83;32132;-64
2021/03/04 07:07:35;;;;;;;86.37;48.40;;;;;;;6.31;69.91;100369.48;2070083;86;32303;-65
2021/03/04 07:13:48;;;;;;;91.97;48.08;;;;;;;6.58;69.68;100368.19;2170500;80;27726;-62
2021/03/04 07:16:51;;;;;;;85.10;50.12;;;;;;;6.75;69.46;100367.66;2170113;81;28857;-62
2021/03/04 07:19:58;;;;;;;87.75;49.40;;;;;;;6.88;69.25;100376.09;2128031;82;31108;-61
2021/03/04 07:23:01;;;;;;;89.60;49.20;;;;;;;7.06;69.19;100376.41;2156211;80;33187;-61
2021/03/04 07:26:03;;;;;;;82.33;49.38;;;;;;;7.21;69.07;100368.36;2133742;81;29762;-61
2021/03/04 07:29:08;;;;;;;91.32;50.75;;;;;;;7.41;69.08;100364.98;2132256;82;27663;-61
2021/03/04 07:32:13;;;;;;;91.87;52.25;;;;;;;7.59;68.88;100370.99;2154053;82;28830;-62
2021/03/04 07:35:17;;;;;;;65.57;37.10;;;;;;;7.82;68.74;100374.62;2165764;82;32431;-73
2021/03/04 07:38:28;;;;;;;89.45;50.92;;;;;;;8.04;68.56;100370.69;2137456;81;33981;-60
2021/03/04 07:41:44;;;;;;;89.52;49.27;;;;;;;8.23;68.20;100367.76;2159533;79;29267;-63
2021/03/04 07:44:47;;;;;;;92.33;54.75;;;;;;;8.45;68.04;100363.33;2151798;82;27689;-63
2021/03/04 07:47:49;;;;;;;85.07;48.42;;;;;;;8.65;67.62;100363.88;2135814;81;29793;-62
2021/03/04 07:51:01;;;;;;;80.70;47.50;;;;;;;8.85;67.35;100362.20;2154400;81;31234;-63
2021/03/04 07:54:03;;;;;;;86.32;47.62;;;;;;;9.03;67.05;100349.86;2144327;82;33067;-63
2021/03/04 07:57:09;;;;;;;90.95;46.75;;;;;;;9.22;66.87;100366.00;2162301;82;30110;-63
2021/03/04 08:00:13;;;;;;;85.57;47.53;;;;;;;9.43;66.72;100362.00;2168244;81;27723;-63
2021/03/04 08:03:16;;;;;;;83.65;49.05;;;;;;;9.53;66.06;100355.30;2160106;82;28936;-63
2021/03/04 08:06:18;;;;;;;87.12;47.70;;;;;;;9.67;65.90;100349.34;2128805;82;31557;-63
2021/03/04 08:09:34;;;;;;;78.17;47.50;;;;;;;9.80;65.62;100346.95;2159119;81;33129;-62
2021/03/04 08:16:16;;;;;;;152.87;84.17;;;;;;;10.14;65.01;100337.35;2328542;76;32313;-64
2021/03/04 08:19:18;;;;;;;160.05;84.35;;;;;;;10.22;64.83;100350.38;2279415;77;27713;-63
2021/03/04 08:22:21;;;;;;;88.03;50.67;;;;;;;10.37;64.34;100348.78;2294047;77;28845;-63
2021/03/04 08:25:27;;;;;;;87.62;51.28;;;;;;;10.52;63.97;100347.67;2288246;75;32022;-64
2021/03/04 08:28:30;;;;;;;102.00;54.50;;;;;;;10.70;63.94;100348.57;2296384;77;33127;-64
2021/03/04 08:31:33;;;;;;;91.80;52.55;;;;;;;10.82;63.19;100346.64;2292235;77;28575;-63
2021/03/04 08:34:39;;;;;;;77.22;47.98;;;;;;;10.90;63.01;100334.20;2265475;75;27680;-64
2021/03/04 08:37:42;;;;;;;84.25;48.52;;;;;;;11.01;63.17;100336.31;2296743;77;28819;-63
2021/03/04 08:40:48;;;;;;;79.30;45.98;;;;;;;11.15;62.67;100327.11;2298220;77;33436;-64
2021/03/04 08:43:51;;;;;;;79.60;45.88;;;;;;;11.27;62.00;100329.60;2297745;77;34002;-64
2021/03/04 08:46:55;;;;;;;79.12;45.63;;;;;;;11.33;61.68;100311.01;2278322;77;28901;-64
2021/03/04 08:49:58;;;;;;;73.12;44.50;;;;;;;11.40;61.08;100314.63;2250663;77;27788;-66
2021/03/04 08:53:01;;;;;;;76.28;45.08;;;;;;;11.41;61.08;100308.77;2280358;77;29485;-64
2021/03/04 08:56:06;;;;;;;78.85;43.83;;;;;;;11.49;61.25;100308.36;2264600;77;32007;-65
2021/03/04 08:59:08;;;;;;;;;;;;;;;11.53;60.80;100309.94;2263910;78;33111;-63
2021/03/04 09:02:15;;;;;;;75.17;45.83;;;;;;;11.56;60.01;100309.78;2281227;77;28857;-64
2021/03/04 09:05:22;;;;;;;67.45;43.68;;;;;;;11.54;60.24;100312.53;2302170;77;27675;-62
2021/03/04 09:08:24;;;;;;;73.95;42.30;;;;;;;11.57;59.68;100306.16;2261838;77;28808;-65
2021/03/04 09:11:34;;;;;;;72.27;42.58;;;;;;;11.60;59.84;100303.28;2233304;77;32738;-62
2021/03/04 09:14:36;;;;;;;84.15;43.63;;;;;;;11.69;59.69;100292.06;2289739;77;33180;-62
2021/03/04 09:17:44;;;;;;;69.92;43.45;;;;;;;11.81;59.56;100294.55;2275006;77;31178;-63
2021/03/04 09:20:48;;;;;;;67.00;38.85;;;;;;;11.95;59.33;100290.23;2281273;77;27658;-61
2021/03/04 09:23:50;;;;;;;71.57;37.08;;;;;;;12.07;58.42;100284.70;2272864;77;33031;-61
2021/03/04 09:26:53;;;;;;;61.63;35.45;;;;;;;12.15;57.92;100292.71;2293649;77;32042;-61
2021/03/04 09:29:55;;;;;;;59.88;35.28;;;;;;;12.18;57.45;100296.15;2271269;77;33967;-61
2021/03/04 09:32:58;;;;;;;63.13;36.45;;;;;;;12.14;57.00;100292.78;2258109;77;29287;-63
2021/03/04 09:36:03;;;;;;;68.57;38.85;;;;;;;12.06;56.64;100298.58;2286769;77;27783;-63
2021/03/04 09:39:05;;;;;;;57.17;36.03;;;;;;;11.92;55.97;100294.42;2277070;77;28800;-66
2021/03/04 09:42:11;;;;;;;67.27;38.13;;;;;;;11.82;56.72;100288.23;2294088;77;31325;-61
2021/03/04 09:45:14;;;;;;;65.72;40.08;;;;;;;11.70;56.54;100283.06;2266407;77;33095;-62
2021/03/04 09:48:19;;;;;;;68.30;39.88;;;;;;;11.58;56.99;100289.11;2266874;77;28839;-61
2021/03/04 09:51:36;;;;;;;61.28;37.05;;;;;;;11.51;56.97;100285.86;2284389;77;27740;-62
2021/03/04 09:54:41;;;;;;;64.60;39.13;;;;;;;11.48;56.74;100275.77;2260357;78;28799;-62
2021/03/04 09:57:45;;;;;;;63.55;37.40;;;;;;;11.49;56.62;100270.80;2265380;77;32317;-62
2021/03/04 10:00:59;;;;;;;;;;;;;;;11.51;56.87;100270.25;2293111;77;34263;-63
2021/03/04 10:04:07;;;;;;;63.17;35.50;;;;;;;11.56;56.45;100272.22;2268926;77;28941;-64
2021/03/04 10:07:15;;;;;;;64.27;34.53;;;;;;;11.59;56.19;100270.69;2284653;77;27690;-63
2021/03/04 10:10:20;;;;;;;75.52;36.55;;;;;;;11.64;56.10;100267.77;2296939;77;28800;-63
2021/03/04 10:13:27;;;;;;;64.45;37.53;;;;;;;11.70;55.92;100267.42;2292159;77;31522;-63
2021/03/04 10:16:29;;;;;;;59.30;35.95;;;;;;;11.77;55.84;100262.58;2270864;75;33102;-63
2021/03/04 10:19:32;;;;;;;65.40;35.40;;;;;;;11.84;55.53;100253.25;2286342;77;30189;-63
2021/03/04 10:22:34;;;;;;;63.87;34.83;;;;;;;11.89;56.07;100255.66;2304786;77;28165;-63
2021/03/04 10:25:39;;;;;;;60.28;33.80;;;;;;;11.97;55.57;100247.58;2297240;77;28847;-63
2021/03/04 10:28:41;;;;;;;55.52;33.78;;;;;;;12.05;55.44;100250.34;2285124;77;31068;-63
2021/03/04 10:31:43;;;;;;;68.17;35.08;;;;;;;12.12;55.52;100243.20;2276514;77;33122;-63
2021/03/04 10:34:46;;;;;;;58.68;36.00;;;;;;;12.16;53.67;100247.41;2283029;77;28858;-62
2021/03/04 10:37:48;;;;;;;64.82;37.67;;;;;;;12.14;54.96;100240.41;2306078;77;27583;-64
2021/03/04 10:40:50;;;;;;;56.23;33.95;;;;;;;12.15;54.50;100244.83;2281852;77;28879;-64
2021/03/04 10:43:53;;;;;;;60.15;34.08;;;;;;;12.13;54.75;100234.65;2272183;75;32023;-66
2021/03/04 10:46:55;;;;;;;51.58;30.77;;;;;;;12.15;53.32;100235.43;2287740;77;33447;-64
2021/03/04 10:49:58;;;;;;;57.88;33.08;;;;;;;12.16;54.21;100229.95;2287596;77;28843;-62
2021/03/04 10:53:00;;;;;;;65.50;35.98;;;;;;;12.20;54.58;100228.44;2282007;77;27722;-64
2021/03/04 10:56:04;;;;;;;56.40;34.60;;;;;;;12.23;53.82;100218.88;2281328;77;28798;-64
2021/03/04 10:59:06;;;;;;;56.42;31.40;;;;;;;12.23;53.73;100221.09;2295372;77;32033;-63
2021/03/04 11:02:08;;;;;;;50.35;31.20;;;;;;;12.26;53.74;100222.23;2290302;75;33972;-63
2021/03/04 11:05:11;;;;;;;55.45;33.23;;;;;;;12.27;53.27;100215.06;2269688;77;28842;-65
2021/03/04 11:08:13;;;;;;;49.10;30.97;;;;;;;12.23;52.99;100206.33;2280386;77;27945;-63
2021/03/04 11:11:16;;;;;;;49.85;31.57;;;;;;;12.18;53.19;100215.12;2269663;77;28820;-66
2021/03/04 11:14:18;;;;;;;51.05;31.48;;;;;;;12.13;52.84;100220.77;2305916;77;32560;-62
2021/03/04 11:17:20;;;;;;;52.70;32.75;;;;;;;12.11;52.77;100212.38;2304163;77;34433;-64
2021/03/04 11:20:24;;;;;;;53.38;31.55;;;;;;;12.10;52.93;100213.34;2288814;77;28854;-64
2021/03/04 11:23:27;;;;;;;56.70;33.80;;;;;;;12.13;53.13;100197.05;2288159;77;27919;-62
2021/03/04 11:26:30;;;;;;;57.83;33.05;;;;;;;12.18;52.98;100193.63;2293787;77;28796;-63
2021/03/04 11:29:32;;;;;;;56.50;34.75;;;;;;;12.20;53.19;100190.84;2305762;77;31117;-62
2021/03/04 11:32:35;;;;;;;58.45;34.45;;;;;;;12.23;53.16;100182.61;2283888;77;33039;-61
2021/03/04 11:35:37;;;;;;;62.88;35.30;;;;;;;12.25;52.80;100178.02;2271615;77;28862;-62
2021/03/04 11:38:39;;;;;;;58.15;35.20;;;;;;;12.23;52.52;100170.06;2265669;77;27650;-61
2021/03/04 11:41:43;;;;;;;55.67;33.90;;;;;;;12.22;52.82;100162.08;2264792;78;28820;-61
2021/03/04 11:44:45;;;;;;;55.65;31.90;;;;;;;12.22;53.11;100162.96;2267852;77;31167;-62
2021/03/04 11:47:48;;;;;;;55.55;32.55;;;;;;;12.23;52.86;100156.64;2269838;77;33616;-62
2021/03/04 11:50:50;;;;;;;73.35;41.83;;;;;;;12.22;52.31;100159.39;2287508;77;28007;-61
2021/03/04 11:53:53;;;;;;;59.53;34.27;;;;;;;12.16;52.54;100152.08;2289420;77;27652;-60
2021/03/04 11:56:56;;;;;;;62.95;37.85;;;;;;;12.14;52.41;100150.45;2285984;77;28828;-61
2021/03/04 11:59:58;;;;;;;54.90;32.28;;;;;;;12.09;52.25;100142.67;2265020;78;31112;-61
2021/03/04 12:03:01;;;;;;;56.95;35.63;;;;;;;12.06;52.53;100134.78;2293270;77;34061;-63
2021/03/04 12:06:03;;;;;;;56.30;33.50;;;;;;;12.06;52.71;100132.59;2306764;77;29024;-61
2021/03/04 12:09:06;;;;;;;66.35;36.60;;;;;;;12.08;52.36;100128.00;2302045;77;27660;-60
2021/03/04 12:12:10;;;;;;;57.30;34.27;;;;;;;12.10;52.72;100115.32;2305695;77;29378;-60
2021/03/04 12:15:16;;;;;;;58.83;34.63;;;;;;;12.15;52.70;100117.27;2305787;77;32211;-60
2021/03/04 12:18:18;;;;;;;57.17;34.45;;;;;;;12.22;52.86;100112.39;2274264;77;34040;-61
2021/03/04 12:21:23;;;;;;;61.35;34.92;;;;;;;12.30;52.76;100108.30;2289559;77;31181;-60
2021/03/04 12:24:25;;;;;;;60.03;35.88;;;;;;;12.43;52.45;100108.42;2271140;77;27594;-60
2021/03/04 12:27:28;;;;;;;57.85;34.75;;;;;;;12.55;52.51;100098.77;2262234;77;29269;-60
2021/03/04 12:30:30;;;;;;;55.63;35.03;;;;;;;12.69;52.47;100097.89;2302233;77;31548;-61
2021/03/04 12:33:34;;;;;;;53.42;34.60;;;;;;;12.82;51.75;100086.40;2261848;77;33524;-61
2021/03/04 12:36:37;;;;;;;;;;;;;;;12.88;52.14;100088.22;2273294;77;29727;-61
2021/03/04 12:39:39;;;;;;;56.95;34.75;;;;;;;12.96;51.73;100085.51;2288202;77;27602;-60
2021/03/04 12:42:41;;;;;;;53.75;34.58;;;;;;;13.00;51.88;100074.45;2266930;77;28801;-61
2021/03/04 12:45:44;;;;;;;54.65;33.85;;;;;;;13.04;51.51;100077.34;2268164;77;31541;-60
2021/03/04 12:48:46;;;;;;;60.38;34.35;;;;;;;13.07;51.16;100072.27;2280237;77;34324;-60
2021/03/04 12:51:49;;;;;;;55.17;33.53;;;;;;;13.14;51.61;100060.63;2265198;77;28911;-61
2021/03/04 12:54:51;;;;;;;57.00;36.03;;;;;;;13.23;51.42;100064.06;2288700;77;27599;-60
2021/03/04 12:57:53;;;;;;;52.67;34.45;;;;;;;13.32;51.04;100060.76;2300156;77;28933;-60
2021/03/04 13:00:56;;;;;;;54.48;30.05;;;;;;;13.43;51.41;100068.17;2265529;77;31218;-61
2021/03/04 13:03:59;;;;;;;54.58;35.23;;;;;;;13.52;50.03;100064.01;2274662;77;33094;-61
2021/03/04 13:07:01;;;;;;;83.82;48.28;;;;;;;13.44;50.22;100063.17;2260443;78;29737;-61
2021/03/04 13:10:06;;;;;;;79.45;49.48;;;;;;;13.26;51.23;100062.98;2261062;78;28301;-61
2021/03/04 13:13:09;;;;;;;81.73;50.27;;;;;;;13.05;50.90;100071.50;2261355;78;29662;-61
2021/03/04 13:16:12;;;;;;;91.12;53.00;;;;;;;12.73;51.40;100069.02;2260898;78;31192;-62
2021/03/04 13:19:14;;;;;;;88.30;51.35;;;;;;;12.44;51.85;100079.72;2261206;78;33713;-63
2021/03/04 13:22:17;;;;;;;79.85;49.03;;;;;;;12.18;52.10;100076.81;2261113;78;29152;-60
2021/03/04 13:25:20;;;;;;;78.92;49.00;;;;;;;12.03;52.70;100080.41;2261157;78;27618;-60
2021/03/04 13:28:22;;;;;;;82.57;50.03;;;;;;;11.90;52.81;100066.81;2261109;78;29613;-61
2021/03/04 13:31:26;;;;;;;90.03;53.42;;;;;;;11.78;53.03;100073.76;2269682;77;31140;-60
2021/03/04 13:34:28;;;;;;;84.42;52.40;;;;;;;11.68;53.26;100072.96;2174395;80;33069;-60
2021/03/04 13:37:30;;;;;;;85.03;52.80;;;;;;;11.59;53.22;100069.45;2178476;81;30123;-60
2021/03/04 13:40:33;;;;;;;88.72;51.37;;;;;;;11.52;53.32;100071.63;2151062;81;27656;-62
2021/03/04 13:43:38;;;;;;;83.52;50.30;;;;;;;11.40;53.35;100070.53;2189167;81;28802;-61
2021/03/04 13:46:40;;;;;;;85.23;50.50;;;;;;;11.33;53.75;100066.46;2188920;81;32047;-60
2021/03/04 13:49:42;;;;;;;84.97;50.67;;;;;;;11.34;53.92;100076.23;2189224;81;34028;-60
2021/03/04 13:52:45;;;;;;;86.97;53.78;;;;;;;11.29;54.01;100074.28;2189216;81;29712;-62
2021/03/04 13:55:47;;;;;;;93.20;56.60;;;;;;;11.20;54.14;100076.16;2189244;81;27652;-62
2021/03/04 13:58:50;;;;;;;103.78;56.13;;;;;;;11.13;54.37;100078.77;2189248;81;28838;-60
2021/03/04 14:01:52;;;;;;;91.02;55.15;;;;;;;11.03;54.46;100068.57;2189160;81;31221;-62
2021/03/04 14:04:54;;;;;;;93.00;53.25;;;;;;;10.93;54.69;100072.69;2189103;79;33101;-60
2021/03/04 14:07:56;;;;;;;98.22;57.55;;;;;;;10.89;54.88;100069.32;2188302;81;31428;-60